createdAt,value
2022-10-04T00:00:27.416Z,7.00
2022-10-04T00:03:02.458Z,7.00
2022-10-04T00:05:30.854Z,7.00
2022-10-04T00:08:17.879Z,7.00
2022-10-04T00:10:44.822Z,6.90
2022-10-04T00:13:25.108Z,6.90
2022-10-04T00:15:52.561Z,6.90
2022-10-04T00:18:41.181Z,6.90
2022-10-04T00:21:09.830Z,6.90
2022-10-04T00:23:36.421Z,6.80
2022-10-04T00:26:06.270Z,6.80
2022-10-04T00:28:36.021Z,6.70
2022-10-04T00:31:13.873Z,6.70
2022-10-04T00:33:46.522Z,6.70
2022-10-04T00:36:25.351Z,6.70
2022-10-04T00:39:16.667Z,6.70
2022-10-04T00:41:54.394Z,6.60
2022-10-04T00:44:30.227Z,6.60
2022-10-04T00:47:00.630Z,6.50
2022-10-04T00:49:35.211Z,6.50
2022-10-04T00:52:26.457Z,6.50
2022-10-04T00:54:59.905Z,6.50
2022-10-04T00:57:55.375Z,6.40
2022-10-04T01:00:22.730Z,6.50
2022-10-04T01:03:05.097Z,6.50
2022-10-04T01:05:36.415Z,6.40
2022-10-04T01:08:13.653Z,6.40
2022-10-04T01:10:51.929Z,6.40
2022-10-04T01:13:36.960Z,6.40
2022-10-04T01:16:19.520Z,6.50
2022-10-04T01:18:47.702Z,6.50
2022-10-04T01:21:20.383Z,6.50
2022-10-04T01:23:49.403Z,6.50
2022-10-04T01:26:32.205Z,6.40
2022-10-04T01:29:38.850Z,6.40
2022-10-04T01:32:05.589Z,6.40
2022-10-04T01:34:32.364Z,6.40
2022-10-04T01:37:00.631Z,6.40
2022-10-04T01:39:28.822Z,6.40
2022-10-04T01:42:20.941Z,6.30
2022-10-04T01:45:01.665Z,6.40
2022-10-04T01:47:35.182Z,6.30
2022-10-04T01:50:07.678Z,6.30
2022-10-04T01:52:51.540Z,6.30
2022-10-04T01:55:34.308Z,6.30
2022-10-04T01:58:24.092Z,6.30
2022-10-04T02:00:59.403Z,6.20
2022-10-04T02:03:33.625Z,6.10
2022-10-04T02:06:04.647Z,6.20
2022-10-04T02:08:34.599Z,6.20
2022-10-04T02:11:06.763Z,6.20
2022-10-04T02:13:38.718Z,6.10
2022-10-04T02:16:11.921Z,6.10
2022-10-04T02:18:40.189Z,6.10
2022-10-04T02:21:08.172Z,6.10
2022-10-04T02:23:37.254Z,6.00
2022-10-04T02:26:11.310Z,6.10
2022-10-04T02:28:40.328Z,6.10
2022-10-04T02:31:27.239Z,6.00
2022-10-04T02:33:58.439Z,6.00
2022-10-04T02:36:28.957Z,6.00
2022-10-04T02:39:04.275Z,6.00
2022-10-04T02:41:39.724Z,6.00
2022-10-04T02:44:09.756Z,6.00
2022-10-04T02:46:43.894Z,6.00
2022-10-04T02:49:21.912Z,6.00
2022-10-04T02:52:03.851Z,5.90
2022-10-04T02:54:45.154Z,5.90
2022-10-04T02:57:23.364Z,5.90
2022-10-04T02:59:51.352Z,5.90
2022-10-04T03:02:30.501Z,5.70
2022-10-04T03:05:07.225Z,5.80
2022-10-04T03:07:36.121Z,5.80
2022-10-04T03:10:09.170Z,5.70
2022-10-04T03:12:37.471Z,5.70
2022-10-04T03:15:07.186Z,5.70
2022-10-04T03:17:35.068Z,5.70
2022-10-04T03:20:04.866Z,5.70
2022-10-04T03:22:32.033Z,5.70
2022-10-04T03:24:59.201Z,5.70
2022-10-04T03:27:31.286Z,5.70
2022-10-04T03:29:59.488Z,5.70
2022-10-04T03:32:30.735Z,5.70
2022-10-04T03:35:03.963Z,5.70
2022-10-04T03:37:35.070Z,5.80
2022-10-04T03:40:03.653Z,5.70
2022-10-04T03:42:34.202Z,5.70
2022-10-04T03:45:03.691Z,5.70
2022-10-04T03:47:44.048Z,5.70
2022-10-04T03:50:19.697Z,5.60
2022-10-04T03:52:54.657Z,5.60
2022-10-04T03:55:25.492Z,5.60
2022-10-04T03:57:52.563Z,5.50
2022-10-04T04:00:19.899Z,5.50
2022-10-04T04:03:03.729Z,5.50
2022-10-04T04:05:44.577Z,5.60
2022-10-04T04:08:21.319Z,5.50
2022-10-04T04:10:54.996Z,5.40
2022-10-04T04:13:24.778Z,5.50
2022-10-04T04:15:54.248Z,5.40
2022-10-04T04:18:24.483Z,5.40
2022-10-04T04:20:59.068Z,5.50
2022-10-04T04:23:43.575Z,5.40
2022-10-04T04:26:40.971Z,5.40
2022-10-04T04:29:11.050Z,5.50
2022-10-04T04:31:51.434Z,5.40
2022-10-04T04:34:25.013Z,5.50
2022-10-04T04:36:59.031Z,5.40
2022-10-04T04:39:37.015Z,5.40
2022-10-04T04:42:18.967Z,5.50
2022-10-04T04:45:01.541Z,5.40
2022-10-04T04:47:35.430Z,5.50
2022-10-04T04:50:07.492Z,5.40
2022-10-04T04:52:35.883Z,5.50
2022-10-04T04:55:04.364Z,5.50
2022-10-04T04:57:33.374Z,5.50
2022-10-04T05:00:01.781Z,5.50
2022-10-04T05:02:38.188Z,5.50
2022-10-04T05:05:22.148Z,5.40
2022-10-04T05:07:50.307Z,5.40
2022-10-04T05:10:32.825Z,5.40
2022-10-04T05:13:01.402Z,5.30
2022-10-04T05:15:34.248Z,5.40
2022-10-04T05:18:02.961Z,5.40
2022-10-04T05:20:31.561Z,5.40
2022-10-04T05:22:59.153Z,5.30
2022-10-04T05:25:31.502Z,5.30
2022-10-04T05:27:58.555Z,5.40
2022-10-04T05:30:52.271Z,5.40
2022-10-04T05:33:45.360Z,5.40
2022-10-04T05:36:13.689Z,5.40
2022-10-04T05:38:46.546Z,5.40
2022-10-04T05:41:44.172Z,5.40
2022-10-04T05:44:35.066Z,5.40
2022-10-04T05:47:05.637Z,5.40
2022-10-04T05:49:46.516Z,5.40
2022-10-04T05:52:33.436Z,5.40
2022-10-04T05:55:12.894Z,5.50
2022-10-04T05:57:55.082Z,5.60
2022-10-04T06:00:23.983Z,5.70
2022-10-04T06:03:28.925Z,5.70
2022-10-04T06:06:00.430Z,5.70
2022-10-04T06:08:36.780Z,5.70
2022-10-04T06:11:14.783Z,5.70
2022-10-04T06:14:02.843Z,5.80
2022-10-04T06:16:48.444Z,5.80
2022-10-04T06:19:27.188Z,5.90
2022-10-04T06:22:19.507Z,6.00
2022-10-04T06:25:09.244Z,6.00
2022-10-04T06:28:17.214Z,6.00
2022-10-04T06:31:24.711Z,6.10
2022-10-04T06:34:38.561Z,6.10
2022-10-04T06:37:17.596Z,6.10
2022-10-04T06:40:06.809Z,6.10
2022-10-04T06:42:49.106Z,6.30
2022-10-04T06:45:50.444Z,6.40
2022-10-04T06:48:35.038Z,6.40
2022-10-04T06:51:26.417Z,6.40
2022-10-04T06:54:06.572Z,6.50
2022-10-04T06:56:58.869Z,6.60
2022-10-04T06:59:36.326Z,6.60
2022-10-04T07:02:17.450Z,6.60
2022-10-04T07:05:08.109Z,6.70
2022-10-04T07:07:38.635Z,6.80
2022-10-04T07:10:08.418Z,7.00
2022-10-04T07:12:40.524Z,7.10
2022-10-04T07:15:21.787Z,7.20
2022-10-04T07:17:51.397Z,7.30
2022-10-04T07:20:33.791Z,7.30
2022-10-04T07:23:14.247Z,7.20
2022-10-04T07:25:50.636Z,7.30
2022-10-04T07:28:45.049Z,7.40
2022-10-04T07:31:20.975Z,7.40
2022-10-04T07:34:16.099Z,7.60
2022-10-04T07:36:50.761Z,7.70
2022-10-04T07:39:23.461Z,7.80
2022-10-04T07:41:56.227Z,7.90
2022-10-04T07:44:32.030Z,8.30
2022-10-04T07:47:14.595Z,8.30
2022-10-04T07:49:41.567Z,8.60
2022-10-04T07:52:23.950Z,8.60
2022-10-04T07:55:05.652Z,8.50
2022-10-04T07:57:44.943Z,8.60
2022-10-04T08:00:24.436Z,8.50
2022-10-04T08:03:15.707Z,8.70
2022-10-04T08:05:49.990Z,8.90
2022-10-04T08:08:28.659Z,9.30
2022-10-04T08:11:12.457Z,9.50
2022-10-04T08:14:03.806Z,9.70
2022-10-04T08:16:40.828Z,9.80
2022-10-04T08:19:26.849Z,10.10
2022-10-04T08:22:13.867Z,10.20
2022-10-04T08:25:20.386Z,10.20
2022-10-04T08:28:20.521Z,10.30
2022-10-04T08:31:12.644Z,10.10
2022-10-04T08:34:07.464Z,10.10
2022-10-04T08:37:06.586Z,10.20
2022-10-04T08:39:48.771Z,10.30
2022-10-04T08:42:44.932Z,10.40
2022-10-04T08:45:45.375Z,10.50
2022-10-04T08:48:30.297Z,10.50
2022-10-04T08:50:59.660Z,10.80
2022-10-04T08:53:59.719Z,10.70
2022-10-04T08:56:48.279Z,10.90
2022-10-04T08:59:17.790Z,11.20
2022-10-04T09:02:22.286Z,11.20
2022-10-04T09:05:25.378Z,11.00
2022-10-04T09:08:00.826Z,11.30
2022-10-04T09:10:44.432Z,11.30
2022-10-04T09:13:27.613Z,11.30
2022-10-04T09:15:59.361Z,11.50
2022-10-04T09:18:48.375Z,11.70
2022-10-04T09:21:37.044Z,12.00
2022-10-04T09:24:32.196Z,12.20
2022-10-04T09:27:12.893Z,12.50
2022-10-04T09:29:54.417Z,12.90
2022-10-04T09:32:26.809Z,13.00
2022-10-04T09:35:21.885Z,13.30
2022-10-04T09:38:05.192Z,13.50
2022-10-04T09:40:35.070Z,13.60
2022-10-04T09:43:27.593Z,13.80
2022-10-04T09:46:13.916Z,14.00
2022-10-04T09:49:08.730Z,14.20
2022-10-04T09:52:04.903Z,14.20
2022-10-04T09:54:56.719Z,14.40
2022-10-04T09:57:44.985Z,14.40
2022-10-04T10:00:24.720Z,14.80
2022-10-04T10:03:14.908Z,15.00
2022-10-04T10:06:17.469Z,15.00
2022-10-04T10:08:52.517Z,14.90
2022-10-04T10:11:48.884Z,14.90
2022-10-04T10:15:01.158Z,14.70
2022-10-04T10:17:37.181Z,14.70
2022-10-04T10:20:36.531Z,15.00
2022-10-04T10:23:31.277Z,15.30
2022-10-04T10:26:16.427Z,15.50
2022-10-04T10:29:04.380Z,15.70
2022-10-04T10:31:51.299Z,15.70
2022-10-04T10:34:45.413Z,15.60
2022-10-04T10:37:27.340Z,15.40
2022-10-04T10:40:27.592Z,15.50
2022-10-04T10:43:15.367Z,15.50
2022-10-04T10:45:47.833Z,15.60
2022-10-04T10:48:51.266Z,15.60
2022-10-04T10:51:57.951Z,15.80
2022-10-04T10:54:46.294Z,15.80
2022-10-04T10:57:34.173Z,15.90
2022-10-04T11:00:00.912Z,15.80
2022-10-04T11:02:49.580Z,16.10
2022-10-04T11:05:50.933Z,16.30
2022-10-04T11:08:57.004Z,16.50
2022-10-04T11:11:41.949Z,16.50
2022-10-04T11:14:34.329Z,16.50
2022-10-04T11:17:01.449Z,16.60
2022-10-04T11:19:56.161Z,16.70
2022-10-04T11:23:03.628Z,16.40
2022-10-04T11:26:07.813Z,16.60
2022-10-04T11:28:37.422Z,16.40
2022-10-04T11:31:40.438Z,16.40
2022-10-04T11:34:38.090Z,16.40
2022-10-04T11:37:12.074Z,16.40
2022-10-04T11:39:54.352Z,16.40
2022-10-04T11:42:49.321Z,16.40
2022-10-04T11:45:19.366Z,16.40
2022-10-04T11:47:54.882Z,16.60
2022-10-04T11:50:52.834Z,16.80
2022-10-04T11:53:43.940Z,17.00
2022-10-04T11:56:21.106Z,17.30
2022-10-04T11:59:06.230Z,17.30
2022-10-04T12:01:49.637Z,17.40
2022-10-04T12:04:54.061Z,17.20
2022-10-04T12:07:47.302Z,17.20
2022-10-04T12:10:41.745Z,17.20
2022-10-04T12:13:30.333Z,17.20
2022-10-04T12:16:27.510Z,17.30
2022-10-04T12:19:19.850Z,17.50
2022-10-04T12:22:14.244Z,17.80
2022-10-04T12:25:14.212Z,18.00
2022-10-04T12:27:59.461Z,18.20
2022-10-04T12:31:05.768Z,18.20
2022-10-04T12:33:54.571Z,18.40
2022-10-04T12:36:33.216Z,18.60
2022-10-04T12:38:59.852Z,18.50
2022-10-04T12:41:45.768Z,18.70
2022-10-04T12:44:46.963Z,18.90
2022-10-04T12:47:44.742Z,19.10
2022-10-04T12:51:01.195Z,18.90
2022-10-04T12:53:58.829Z,18.60
2022-10-04T12:56:39.014Z,18.40
2022-10-04T12:59:30.858Z,18.50
2022-10-04T13:02:23.614Z,18.50
2022-10-04T13:05:07.766Z,18.60
2022-10-04T13:07:47.401Z,18.40
2022-10-04T13:10:24.502Z,18.50
2022-10-04T13:13:16.614Z,18.40
2022-10-04T13:19:02.291Z,18.60
2022-10-04T13:21:36.647Z,18.60
2022-10-04T13:24:31.952Z,18.60
2022-10-04T13:27:04.537Z,18.60
2022-10-04T13:29:41.340Z,18.50
2022-10-04T13:32:28.035Z,18.50
2022-10-04T13:35:22.050Z,18.50
2022-10-04T13:38:04.373Z,18.40
2022-10-04T13:40:36.622Z,18.40
2022-10-04T13:43:28.214Z,18.50
2022-10-04T13:45:54.970Z,18.50
2022-10-04T13:48:34.573Z,18.50
2022-10-04T13:51:33.149Z,18.70
2022-10-04T13:54:27.652Z,18.60
2022-10-04T13:57:24.167Z,18.70
2022-10-04T14:00:02.146Z,18.60
2022-10-04T14:03:10.939Z,18.30
2022-10-04T14:05:49.438Z,18.30
2022-10-04T14:08:25.386Z,18.30
2022-10-04T14:11:01.078Z,18.40
2022-10-04T14:13:30.788Z,18.40
2022-10-04T14:16:35.446Z,18.30
2022-10-04T14:19:23.367Z,18.20
2022-10-04T14:21:55.900Z,18.00
2022-10-04T14:24:37.777Z,18.00
2022-10-04T14:27:22.612Z,18.20
2022-10-04T14:30:23.594Z,18.10
2022-10-04T14:32:59.305Z,18.10
2022-10-04T14:35:44.948Z,18.20
2022-10-04T14:38:26.738Z,18.20
2022-10-04T14:40:56.497Z,18.00
2022-10-04T14:43:48.233Z,18.00
2022-10-04T14:46:18.135Z,18.00
2022-10-04T14:49:13.000Z,18.00
2022-10-04T14:51:39.668Z,18.10
2022-10-04T14:54:15.760Z,18.00
2022-10-04T14:57:07.975Z,18.20
2022-10-04T14:59:54.895Z,18.10
2022-10-04T15:02:31.611Z,18.10
2022-10-04T15:05:20.076Z,18.20
2022-10-04T15:07:58.956Z,18.10
2022-10-04T15:10:37.201Z,18.00
2022-10-04T15:13:28.460Z,17.90
2022-10-04T15:16:13.872Z,17.90
2022-10-04T15:19:00.372Z,17.90
2022-10-04T15:21:45.669Z,17.80
2022-10-04T15:24:18.435Z,18.00
2022-10-04T15:27:09.787Z,17.90
2022-10-04T15:30:06.000Z,17.90
2022-10-04T15:32:51.196Z,18.00
2022-10-04T15:35:30.941Z,17.90
2022-10-04T15:38:00.375Z,17.80
2022-10-04T15:40:48.026Z,17.70
2022-10-04T15:43:19.488Z,17.60
2022-10-04T15:45:52.084Z,17.50
2022-10-04T15:48:55.211Z,17.40
2022-10-04T15:51:42.332Z,17.30
2022-10-04T15:54:18.706Z,17.30
2022-10-04T15:56:56.114Z,17.20
2022-10-04T15:59:42.158Z,17.10
2022-10-04T16:02:14.617Z,17.00
2022-10-04T16:05:04.605Z,16.90
2022-10-04T16:07:40.828Z,16.80
2022-10-04T16:10:28.263Z,16.70
2022-10-04T16:13:16.953Z,16.70
2022-10-04T16:15:49.450Z,16.60
2022-10-04T16:18:40.430Z,16.50
2022-10-04T16:21:39.638Z,16.40
2022-10-04T16:24:21.469Z,16.30
2022-10-04T16:26:51.043Z,16.30
2022-10-04T16:30:14.633Z,16.30
2022-10-04T16:33:10.293Z,16.00
2022-10-04T16:35:39.934Z,15.80
2022-10-04T16:38:12.837Z,15.60
2022-10-04T16:40:51.779Z,15.50
2022-10-04T16:43:18.545Z,15.40
2022-10-04T16:46:04.143Z,15.30
2022-10-04T16:48:57.445Z,15.20
2022-10-04T16:52:02.803Z,15.10
2022-10-04T16:54:48.265Z,14.90
2022-10-04T16:57:22.442Z,14.90
2022-10-04T16:59:56.711Z,14.80
2022-10-04T17:02:45.246Z,14.70
2022-10-04T17:05:22.772Z,14.60
2022-10-04T17:07:58.902Z,14.50
2022-10-04T17:11:13.140Z,14.50
2022-10-04T17:14:22.265Z,14.40
2022-10-04T17:16:57.880Z,14.20
2022-10-04T17:19:44.101Z,14.10
2022-10-04T17:22:41.049Z,14.00
2022-10-04T17:25:27.602Z,13.80
2022-10-04T17:28:01.990Z,13.90
2022-10-04T17:30:48.000Z,13.80
2022-10-04T17:33:43.594Z,13.70
2022-10-04T17:36:32.285Z,13.50
2022-10-04T17:39:17.522Z,13.40
2022-10-04T17:41:50.504Z,13.30
2022-10-04T17:44:35.211Z,13.20
2022-10-04T17:47:19.121Z,13.20
2022-10-04T17:50:21.613Z,13.10
2022-10-04T17:53:13.723Z,13.00
2022-10-04T17:55:55.107Z,13.00
2022-10-04T17:58:26.882Z,12.90
2022-10-04T18:01:07.931Z,12.90
2022-10-04T18:03:52.262Z,12.80
2022-10-04T18:06:36.638Z,12.70
2022-10-04T18:09:30.832Z,12.60
2022-10-04T18:12:06.381Z,12.60
2022-10-04T18:14:46.026Z,12.50
2022-10-04T18:17:23.298Z,12.40
2022-10-04T18:20:28.169Z,12.30
2022-10-04T18:23:18.209Z,12.20
2022-10-04T18:25:46.017Z,12.20
2022-10-04T18:28:21.695Z,12.30
2022-10-04T18:30:48.898Z,12.20
2022-10-04T18:33:26.594Z,12.20
2022-10-04T18:36:05.642Z,12.10
2022-10-04T18:38:34.877Z,12.00
2022-10-04T18:41:21.214Z,11.90
2022-10-04T18:43:48.166Z,11.90
2022-10-04T18:46:22.802Z,11.90
2022-10-04T18:48:58.652Z,11.80
2022-10-04T18:51:39.794Z,11.80
2022-10-04T18:54:28.343Z,11.70
2022-10-04T18:57:05.555Z,11.60
2022-10-04T19:00:23.728Z,11.50
2022-10-04T19:02:59.232Z,11.50
2022-10-04T19:05:57.089Z,11.40
2022-10-04T19:08:45.981Z,11.30
2022-10-04T19:11:51.848Z,11.30
2022-10-04T19:14:45.860Z,11.20
2022-10-04T19:17:53.997Z,11.20
2022-10-04T19:20:45.848Z,11.10
2022-10-04T19:23:28.595Z,11.10
2022-10-04T19:26:30.694Z,11.00
2022-10-04T19:29:23.987Z,10.90
2022-10-04T19:31:59.657Z,10.90
2022-10-04T19:34:49.076Z,10.90
2022-10-04T19:37:46.245Z,10.80
2022-10-04T19:40:32.574Z,10.80
2022-10-04T19:43:09.593Z,10.70
2022-10-04T19:45:43.067Z,10.70
2022-10-04T19:48:24.682Z,10.60
2022-10-04T19:51:08.357Z,10.60
2022-10-04T19:53:39.598Z,10.50
2022-10-04T19:56:17.414Z,10.50
2022-10-04T19:59:09.940Z,10.50
2022-10-04T20:01:37.313Z,10.50
2022-10-04T20:04:30.177Z,10.40
2022-10-04T20:06:59.235Z,10.40
2022-10-04T20:09:41.018Z,10.40
2022-10-04T20:12:27.764Z,10.40
2022-10-04T20:15:34.724Z,10.40
2022-10-04T20:18:03.010Z,10.40
2022-10-04T20:20:38.955Z,10.30
2022-10-04T20:23:07.610Z,10.20
2022-10-04T20:25:43.181Z,10.10
2022-10-04T20:28:32.207Z,10.10
2022-10-04T20:31:00.799Z,10.10
2022-10-04T20:33:33.332Z,10.10
2022-10-04T20:36:21.088Z,10.00
2022-10-04T20:39:00.897Z,10.00
2022-10-04T20:41:49.415Z,10.00
2022-10-04T20:44:41.340Z,10.00
2022-10-04T20:47:23.915Z,10.00
2022-10-04T20:49:52.163Z,10.00
2022-10-04T20:52:21.720Z,10.00
2022-10-04T20:54:52.342Z,10.00
2022-10-04T20:57:23.699Z,10.00
2022-10-04T20:59:55.352Z,9.90
2022-10-04T21:02:24.624Z,9.80
2022-10-04T21:04:57.464Z,9.90
2022-10-04T21:07:26.316Z,9.80
2022-10-04T21:09:54.485Z,9.80
2022-10-04T21:12:39.052Z,9.70
2022-10-04T21:15:18.184Z,9.70
2022-10-04T21:18:07.092Z,9.70
2022-10-04T21:20:51.116Z,9.60
2022-10-04T21:23:30.177Z,9.50
2022-10-04T21:26:23.163Z,9.50
2022-10-04T21:28:57.942Z,9.50
2022-10-04T21:31:25.116Z,9.40
2022-10-04T21:33:51.975Z,9.40
2022-10-04T21:36:18.649Z,9.40
2022-10-04T21:38:45.376Z,9.40
2022-10-04T21:41:12.136Z,9.40
2022-10-04T21:43:38.898Z,9.40
2022-10-04T21:46:05.808Z,9.40
2022-10-04T21:48:32.647Z,9.40
2022-10-04T21:50:59.296Z,9.40
2022-10-04T21:53:26.021Z,9.40
2022-10-04T21:55:52.724Z,9.20
2022-10-04T21:58:19.491Z,9.30
2022-10-04T22:00:46.351Z,9.30
2022-10-04T22:03:13.115Z,9.30
2022-10-04T22:05:39.900Z,9.30
2022-10-04T22:08:06.745Z,9.30
2022-10-04T22:10:33.804Z,9.30
2022-10-04T22:13:00.561Z,9.30
2022-10-04T22:15:28.592Z,9.30
2022-10-04T22:17:56.079Z,9.30
2022-10-04T22:20:23.522Z,9.30
2022-10-04T22:22:50.396Z,9.20
2022-10-04T22:25:20.421Z,9.00
2022-10-04T22:27:47.821Z,9.20
2022-10-04T22:30:27.878Z,9.20
2022-10-04T22:33:00.588Z,9.20
2022-10-04T22:35:30.773Z,9.20
2022-10-04T22:37:59.321Z,9.20
2022-10-04T22:40:27.230Z,9.10
2022-10-04T22:42:55.716Z,9.10
2022-10-04T22:45:27.037Z,9.10
2022-10-04T22:47:57.792Z,9.10
2022-10-04T22:50:33.757Z,9.10
2022-10-04T22:53:12.259Z,9.10
2022-10-04T22:55:41.093Z,9.00
2022-10-04T22:58:14.784Z,9.00
2022-10-04T23:00:43.191Z,9.00
2022-10-04T23:03:34.272Z,9.00
2022-10-04T23:06:02.611Z,8.90
2022-10-04T23:08:30.137Z,8.90
2022-10-04T23:10:58.781Z,8.80
2022-10-04T23:13:26.876Z,8.80
2022-10-04T23:15:59.415Z,8.70
2022-10-04T23:18:28.393Z,8.60
2022-10-04T23:20:58.130Z,8.60
2022-10-04T23:23:28.054Z,8.60
2022-10-04T23:25:55.083Z,8.60
2022-10-04T23:28:21.880Z,8.50
2022-10-04T23:31:02.268Z,8.50
2022-10-04T23:33:29.069Z,8.50
2022-10-04T23:35:56.867Z,8.50
2022-10-04T23:38:24.797Z,8.50
2022-10-04T23:40:51.887Z,8.50
2022-10-04T23:43:24.938Z,8.40
2022-10-04T23:45:53.764Z,8.40
2022-10-04T23:48:26.900Z,8.40
2022-10-04T23:50:57.256Z,8.40
2022-10-04T23:53:33.036Z,8.30
2022-10-04T23:56:05.208Z,8.30
2022-10-04T23:58:38.860Z,8.30
